Terminal Aerodrome Forecast
Issued by NWS

Home | Current Version | Previous Version | Text Only | Print | Product List | Glossary On
Versions: 1 2 3 4 5 6 7 8 9 10 11 12 13
000
FTUS41 KBTV 300500
TAFSLK
TAF
KSLK 300520Z 3006/0106 00000KT 4SM BR SKC
     FM300700 00000KT 1SM BR SKC
      TEMPO 3007/3011 1/2SM FG BKN001
     FM301300 VRB03KT P6SM BKN040
     FM301600 05009KT P6SM SCT040 BKN080=

USA.gov is the U.S. government's official web portal to all federal, state and local government web resources and services.